Descanso, CA

2:54 AM PDT on October 02, 2014 (GMT -0700)
Sherilton Valley | Change Station
CLOSE
Current Station
Personal Weather Station
Location: Descanso, CA
Elevation: 3264 ft
Nearby Weather Stations
Active Advisory: Heat Advisory

Elev 3264 ft 32.90 °N, 116.62 °W | Updated 2 seconds ago

Clear
Clear
71.0 °F
Feels Like 76 °F
N
13.0
Wind Variable Wind from ENE
Gusts 17.0 mph

Today
High -- | Low -- °F
--% Chance of Precip.
Yesterday
High -- | Low -- °F
Precip. -- in
6:41 AM 6:29 PM
First Quarter, 57% visible
Pressure 29.85 in
Visibility -9999.0 miles
Clouds
Heat Index 76 °F
Dew Point 38 °F
Humidity 30%
Rainfall 0.00 in
Snow Depth 1 in , 1 in , 1 in
UV Not available.
Pollen 5.40 out of 12
Air Quality Not available.
Flu Activity Not available.
METAR KCZZ 020952Z AUTO 05008KT 18/03 A2995 RMK AO1 SLP106 T01830033

More Conditions Fewer Conditions

Pressure 29.85 in
Visibility -9999.0 miles
Clouds
Heat Index 76 °F
Dew Point 38 °F
Humidity 30%
Rainfall 0.00 in
Snow Depth 1 in , 1 in , 1 in
UV Not available.
Pollen 5.40 out of 12
Air Quality Not available.
Flu Activity Not available.
METAR KCZZ 020952Z AUTO 05008KT 18/03 A2995 RMK AO1 SLP106 T01830033

More Conditions Fewer Conditions

10-Day Weather Forecast

Almanac

Astronomy

Oct. 02, 2014 Rise Set
Actual Time 6:41 AM PDT 6:29 PM PDT
Civil Twilight 6:16 AM PDT 6:54 PM PDT
Nautical Twilight 5:48 AM PDT 7:22 PM PDT
Astronomical Twilight 5:19 AM PDT 7:51 PM PDT
Moon 2:23 PM PDT 12:20 AM PDT
Length of Visible Light 12h 37m
Length of Day
11h 48m
Tomorrow will be 2m 0s shorter.
First Quarter, 57% of the Moon is Illuminated
Today
First Quarter
Oct 8
Full
Oct 15
Last Quarter
Oct 23
New
Oct 30
First Quarter

Today's Extremes

State Highs State Lows

Community

WunderPhotos

Upload Photos

1,758,206 photos uploaded!

WunderBlogs® & News

By Dr. Jeff Masters
Director of Meteorology, Weather Underground
By Kari Strenfel
Meteorologist, Weather Underground
By Christopher C. Burt
Weather Historian, Weather Underground
October 2, 2014
October 2, 2014
October 2, 2014

Nearby

Snow Depth

Station Depth Elevation
Forestdale Creek 1 in 8029 ft
Tahoe City Cross 1 in 6750 ft
Independence Camp 0 in 7000 ft
Summit Meadow 1 in 9122 ft
Spratt Creek 1 in 6200 ft

Earthquake Activity

City Distance Mag. Time & Date
Avalon, California 98 miles 3.2 10:12 PM PDT
2014-10-01
Avalon, California 98 miles 2.6 1:28 PM PDT
2014-09-30
Minimum magnitude displayed is 2.5.

Coastal Water Temperatures

Place Temperature
No Stations Reporting

Nearby Weather Stations